sensor_id;sensor_type;location;lat;lon;timestamp;temperature;humidity
21255;DHT22;10785;50.674;17.954;2023-04-29T00:02:41;10.70;99.90
21255;DHT22;10785;50.674;17.954;2023-04-29T00:05:10;10.70;99.90
21255;DHT22;10785;50.674;17.954;2023-04-29T00:07:39;10.70;99.90
21255;DHT22;10785;50.674;17.954;2023-04-29T00:10:08;10.70;99.90
21255;DHT22;10785;50.674;17.954;2023-04-29T00:12:38;10.70;99.90
21255;DHT22;10785;50.674;17.954;2023-04-29T00:15:09;10.70;99.90
21255;DHT22;10785;50.674;17.954;2023-04-29T00:17:38;10.70;99.90
21255;DHT22;10785;50.674;17.954;2023-04-29T00:20:08;10.70;99.90
21255;DHT22;10785;50.674;17.954;2023-04-29T00:22:36;10.70;99.90
21255;DHT22;10785;50.674;17.954;2023-04-29T00:25:07;10.70;99.90
21255;DHT22;10785;50.674;17.954;2023-04-29T00:27:36;10.80;99.90
21255;DHT22;10785;50.674;17.954;2023-04-29T00:30:08;10.80;99.90
21255;DHT22;10785;50.674;17.954;2023-04-29T00:32:37;10.80;99.90
21255;DHT22;10785;50.674;17.954;2023-04-29T00:35:06;10.80;99.90
21255;DHT22;10785;50.674;17.954;2023-04-29T00:37:34;10.90;99.90
21255;DHT22;10785;50.674;17.954;2023-04-29T00:40:04;10.90;99.90
21255;DHT22;10785;50.674;17.954;2023-04-29T00:42:33;10.90;99.90
21255;DHT22;10785;50.674;17.954;2023-04-29T00:45:02;10.90;99.90
21255;DHT22;10785;50.674;17.954;2023-04-29T00:47:33;10.90;99.90
21255;DHT22;10785;50.674;17.954;2023-04-29T00:50:03;10.90;99.90
21255;DHT22;10785;50.674;17.954;2023-04-29T00:52:33;11.00;99.90
21255;DHT22;10785;50.674;17.954;2023-04-29T00:55:04;11.00;99.90
21255;DHT22;10785;50.674;17.954;2023-04-29T00:57:33;11.00;99.90
21255;DHT22;10785;50.674;17.954;2023-04-29T01:00:03;11.00;99.90
21255;DHT22;10785;50.674;17.954;2023-04-29T01:02:35;11.10;99.90
21255;DHT22;10785;50.674;17.954;2023-04-29T01:05:04;11.10;99.90
21255;DHT22;10785;50.674;17.954;2023-04-29T01:07:39;11.10;99.90
21255;DHT22;10785;50.674;17.954;2023-04-29T01:10:14;11.10;99.90
21255;DHT22;10785;50.674;17.954;2023-04-29T01:13:04;11.10;99.90
21255;DHT22;10785;50.674;17.954;2023-04-29T01:15:40;11.10;99.90
21255;DHT22;10785;50.674;17.954;2023-04-29T01:18:19;11.10;99.90
21255;DHT22;10785;50.674;17.954;2023-04-29T01:20:50;11.10;99.90
21255;DHT22;10785;50.674;17.954;2023-04-29T01:23:19;11.10;99.90
21255;DHT22;10785;50.674;17.954;2023-04-29T01:25:50;11.10;99.90
21255;DHT22;10785;50.674;17.954;2023-04-29T01:28:48;11.10;99.90
21255;DHT22;10785;50.674;17.954;2023-04-29T01:31:24;11.10;99.90
21255;DHT22;10785;50.674;17.954;2023-04-29T01:34:03;11.10;99.90
21255;DHT22;10785;50.674;17.954;2023-04-29T01:36:42;11.20;99.90
21255;DHT22;10785;50.674;17.954;2023-04-29T01:39:19;11.10;99.90
21255;DHT22;10785;50.674;17.954;2023-04-29T01:42:04;11.10;99.90
21255;DHT22;10785;50.674;17.954;2023-04-29T01:44:34;11.10;99.90
21255;DHT22;10785;50.674;17.954;2023-04-29T01:47:06;11.10;99.90
21255;DHT22;10785;50.674;17.954;2023-04-29T01:49:42;11.10;99.90
21255;DHT22;10785;50.674;17.954;2023-04-29T01:52:13;11.10;99.90
21255;DHT22;10785;50.674;17.954;2023-04-29T01:54:50;11.10;99.90
21255;DHT22;10785;50.674;17.954;2023-04-29T01:57:20;11.10;99.90
21255;DHT22;10785;50.674;17.954;2023-04-29T02:00:01;11.00;99.90
21255;DHT22;10785;50.674;17.954;2023-04-29T02:02:46;11.00;99.90
21255;DHT22;10785;50.674;17.954;2023-04-29T02:05:26;10.90;99.90
21255;DHT22;10785;50.674;17.954;2023-04-29T02:07:58;11.00;99.90
21255;DHT22;10785;50.674;17.954;2023-04-29T02:10:27;11.00;99.90
21255;DHT22;10785;50.674;17.954;2023-04-29T02:13:14;11.00;99.90
21255;DHT22;10785;50.674;17.954;2023-04-29T02:15:43;11.00;99.90
21255;DHT22;10785;50.674;17.954;2023-04-29T02:18:11;11.00;99.90
21255;DHT22;10785;50.674;17.954;2023-04-29T02:20:40;11.00;99.90
21255;DHT22;10785;50.674;17.954;2023-04-29T02:23:09;10.90;99.90
21255;DHT22;10785;50.674;17.954;2023-04-29T02:25:37;10.90;99.90
21255;DHT22;10785;50.674;17.954;2023-04-29T02:28:06;10.90;99.90
21255;DHT22;10785;50.674;17.954;2023-04-29T02:30:40;10.90;99.90
21255;DHT22;10785;50.674;17.954;2023-04-29T03:05:55;10.90;99.90
21255;DHT22;10785;50.674;17.954;2023-04-29T03:08:24;10.90;99.90
21255;DHT22;10785;50.674;17.954;2023-04-29T03:10:53;10.90;99.90
21255;DHT22;10785;50.674;17.954;2023-04-29T03:13:23;10.80;99.90
21255;DHT22;10785;50.674;17.954;2023-04-29T03:15:51;10.80;99.90
21255;DHT22;10785;50.674;17.954;2023-04-29T03:18:20;10.90;99.90
21255;DHT22;10785;50.674;17.954;2023-04-29T03:20:48;10.90;99.90
21255;DHT22;10785;50.674;17.954;2023-04-29T03:23:18;10.90;99.90
21255;DHT22;10785;50.674;17.954;2023-04-29T03:25:48;10.90;99.90
21255;DHT22;10785;50.674;17.954;2023-04-29T03:28:19;10.90;99.90
21255;DHT22;10785;50.674;17.954;2023-04-29T03:30:47;10.90;99.90
21255;DHT22;10785;50.674;17.954;2023-04-29T03:33:16;10.90;99.90
21255;DHT22;10785;50.674;17.954;2023-04-29T03:35:45;10.90;99.90
21255;DHT22;10785;50.674;17.954;2023-04-29T03:38:33;10.90;99.90
21255;DHT22;10785;50.674;17.954;2023-04-29T03:41:04;10.90;99.90
21255;DHT22;10785;50.674;17.954;2023-04-29T03:43:33;10.90;99.90
21255;DHT22;10785;50.674;17.954;2023-04-29T03:46:02;10.80;99.90
21255;DHT22;10785;50.674;17.954;2023-04-29T03:48:31;10.80;99.90
21255;DHT22;10785;50.674;17.954;2023-04-29T03:51:00;10.80;99.90
21255;DHT22;10785;50.674;17.954;2023-04-29T03:53:29;10.80;99.90
21255;DHT22;10785;50.674;17.954;2023-04-29T03:56:00;10.80;99.90
21255;DHT22;10785;50.674;17.954;2023-04-29T03:58:29;10.90;99.90
21255;DHT22;10785;50.674;17.954;2023-04-29T04:00:57;10.90;99.90
21255;DHT22;10785;50.674;17.954;2023-04-29T04:03:33;10.90;99.90
21255;DHT22;10785;50.674;17.954;2023-04-29T04:06:03;10.90;99.90
21255;DHT22;10785;50.674;17.954;2023-04-29T04:08:31;11.00;99.90
21255;DHT22;10785;50.674;17.954;2023-04-29T04:11:08;11.00;99.90
21255;DHT22;10785;50.674;17.954;2023-04-29T04:13:58;11.00;99.90
21255;DHT22;10785;50.674;17.954;2023-04-29T04:16:29;11.00;99.90
21255;DHT22;10785;50.674;17.954;2023-04-29T04:18:58;11.00;99.90
21255;DHT22;10785;50.674;17.954;2023-04-29T04:21:27;11.00;99.90
21255;DHT22;10785;50.674;17.954;2023-04-29T04:24:04;11.00;99.90
21255;DHT22;10785;50.674;17.954;2023-04-29T04:26:35;11.10;99.90
21255;DHT22;10785;50.674;17.954;2023-04-29T04:29:31;11.10;99.90
21255;DHT22;10785;50.674;17.954;2023-04-29T04:32:05;11.10;99.90
21255;DHT22;10785;50.674;17.954;2023-04-29T04:34:35;11.10;99.90
21255;DHT22;10785;50.674;17.954;2023-04-29T04:37:05;11.20;99.90
21255;DHT22;10785;50.674;17.954;2023-04-29T04:39:35;11.20;99.90
21255;DHT22;10785;50.674;17.954;2023-04-29T04:42:05;11.30;99.90
21255;DHT22;10785;50.674;17.954;2023-04-29T04:44:35;11.30;99.90
21255;DHT22;10785;50.674;17.954;2023-04-29T04:47:09;11.40;99.90
21255;DHT22;10785;50.674;17.954;2023-04-29T04:49:46;11.40;99.90
21255;DHT22;10785;50.674;17.954;2023-04-29T04:52:19;11.40;99.90
21255;DHT22;10785;50.674;17.954;2023-04-29T04:54:55;11.50;99.90
21255;DHT22;10785;50.674;17.954;2023-04-29T04:57:27;11.60;99.90
21255;DHT22;10785;50.674;17.954;2023-04-29T05:00:00;11.60;99.90
21255;DHT22;10785;50.674;17.954;2023-04-29T05:02:34;11.70;99.90
21255;DHT22;10785;50.674;17.954;2023-04-29T05:05:03;11.80;99.90
21255;DHT22;10785;50.674;17.954;2023-04-29T05:07:35;11.90;99.90
21255;DHT22;10785;50.674;17.954;2023-04-29T05:10:05;11.90;99.90
21255;DHT22;10785;50.674;17.954;2023-04-29T05:12:43;12.00;99.90
21255;DHT22;10785;50.674;17.954;2023-04-29T05:15:12;12.00;99.90
21255;DHT22;10785;50.674;17.954;2023-04-29T05:17:47;12.00;99.90
21255;DHT22;10785;50.674;17.954;2023-04-29T05:20:16;12.00;99.90
21255;DHT22;10785;50.674;17.954;2023-04-29T05:22:46;12.00;99.90
21255;DHT22;10785;50.674;17.954;2023-04-29T05:25:15;12.00;99.90
21255;DHT22;10785;50.674;17.954;2023-04-29T05:27:46;12.10;99.90
21255;DHT22;10785;50.674;17.954;2023-04-29T05:30:17;12.20;99.90
21255;DHT22;10785;50.674;17.954;2023-04-29T05:32:57;12.20;99.90
21255;DHT22;10785;50.674;17.954;2023-04-29T05:35:27;12.20;99.90
21255;DHT22;10785;50.674;17.954;2023-04-29T05:37:55;12.20;99.90
21255;DHT22;10785;50.674;17.954;2023-04-29T05:40:32;12.40;99.90
21255;DHT22;10785;50.674;17.954;2023-04-29T05:43:30;12.40;99.90
21255;DHT22;10785;50.674;17.954;2023-04-29T05:45:59;12.50;99.90
21255;DHT22;10785;50.674;17.954;2023-04-29T06:01:23;13.20;99.90
21255;DHT22;10785;50.674;17.954;2023-04-29T06:03:52;13.20;99.90
21255;DHT22;10785;50.674;17.954;2023-04-29T06:06:24;13.20;99.90
21255;DHT22;10785;50.674;17.954;2023-04-29T06:09:02;13.20;99.90
21255;DHT22;10785;50.674;17.954;2023-04-29T06:11:44;13.20;99.90
21255;DHT22;10785;50.674;17.954;2023-04-29T06:14:13;13.30;99.90
21255;DHT22;10785;50.674;17.954;2023-04-29T06:16:43;13.40;99.90
21255;DHT22;10785;50.674;17.954;2023-04-29T06:19:12;13.60;99.90
21255;DHT22;10785;50.674;17.954;2023-04-29T06:21:41;13.70;99.90
21255;DHT22;10785;50.674;17.954;2023-04-29T06:24:10;13.80;99.90
21255;DHT22;10785;50.674;17.954;2023-04-29T06:26:39;14.00;99.90
21255;DHT22;10785;50.674;17.954;2023-04-29T06:29:07;14.00;99.90
21255;DHT22;10785;50.674;17.954;2023-04-29T06:31:36;14.00;99.90
21255;DHT22;10785;50.674;17.954;2023-04-29T06:34:08;14.30;99.90
21255;DHT22;10785;50.674;17.954;2023-04-29T06:36:48;14.50;99.90
21255;DHT22;10785;50.674;17.954;2023-04-29T06:39:38;14.80;99.90
21255;DHT22;10785;50.674;17.954;2023-04-29T06:42:37;15.00;99.90
21255;DHT22;10785;50.674;17.954;2023-04-29T06:45:32;15.00;99.90
21255;DHT22;10785;50.674;17.954;2023-04-29T06:48:21;15.60;99.90
21255;DHT22;10785;50.674;17.954;2023-04-29T06:50:53;16.30;99.90
21255;DHT22;10785;50.674;17.954;2023-04-29T07:06:38;19.70;99.90
21255;DHT22;10785;50.674;17.954;2023-04-29T07:09:07;18.70;99.90
21255;DHT22;10785;50.674;17.954;2023-04-29T07:11:36;18.30;99.90
21255;DHT22;10785;50.674;17.954;2023-04-29T07:14:05;18.00;99.90
21255;DHT22;10785;50.674;17.954;2023-04-29T07:16:33;18.10;99.90
21255;DHT22;10785;50.674;17.954;2023-04-29T07:19:02;17.90;99.90
21255;DHT22;10785;50.674;17.954;2023-04-29T07:24:41;17.00;99.90
21255;DHT22;10785;50.674;17.954;2023-04-29T07:27:10;16.60;99.90
21255;DHT22;10785;50.674;17.954;2023-04-29T07:29:39;16.60;99.90
21255;DHT22;10785;50.674;17.954;2023-04-29T07:32:07;17.00;99.90
21255;DHT22;10785;50.674;17.954;2023-04-29T07:34:37;17.50;99.90
21255;DHT22;10785;50.674;17.954;2023-04-29T07:37:06;18.00;99.90
21255;DHT22;10785;50.674;17.954;2023-04-29T07:39:34;17.40;99.90
21255;DHT22;10785;50.674;17.954;2023-04-29T07:42:05;17.00;99.90
21255;DHT22;10785;50.674;17.954;2023-04-29T07:44:33;16.80;99.90
21255;DHT22;10785;50.674;17.954;2023-04-29T07:47:02;16.40;99.90
21255;DHT22;10785;50.674;17.954;2023-04-29T07:49:31;16.30;99.90
21255;DHT22;10785;50.674;17.954;2023-04-29T07:52:00;16.40;99.90
21255;DHT22;10785;50.674;17.954;2023-04-29T07:54:30;16.40;99.90
21255;DHT22;10785;50.674;17.954;2023-04-29T07:56:59;16.70;99.90
21255;DHT22;10785;50.674;17.954;2023-04-29T07:59:32;17.30;99.90
21255;DHT22;10785;50.674;17.954;2023-04-29T08:02:02;17.80;99.90
21255;DHT22;10785;50.674;17.954;2023-04-29T08:04:31;18.10;99.90
21255;DHT22;10785;50.674;17.954;2023-04-29T08:07:07;18.10;99.90
21255;DHT22;10785;50.674;17.954;2023-04-29T08:09:37;18.20;99.90
21255;DHT22;10785;50.674;17.954;2023-04-29T08:12:05;18.10;99.90
21255;DHT22;10785;50.674;17.954;2023-04-29T08:14:35;18.00;99.90
21255;DHT22;10785;50.674;17.954;2023-04-29T08:17:04;17.80;99.90
21255;DHT22;10785;50.674;17.954;2023-04-29T08:19:33;17.60;99.90
21255;DHT22;10785;50.674;17.954;2023-04-29T08:22:03;17.60;99.90
21255;DHT22;10785;50.674;17.954;2023-04-29T08:24:31;17.30;99.90
21255;DHT22;10785;50.674;17.954;2023-04-29T08:27:01;17.00;99.90
21255;DHT22;10785;50.674;17.954;2023-04-29T08:29:31;16.60;99.90
21255;DHT22;10785;50.674;17.954;2023-04-29T08:32:02;16.50;99.90
21255;DHT22;10785;50.674;17.954;2023-04-29T08:34:31;16.30;99.90
21255;DHT22;10785;50.674;17.954;2023-04-29T08:37:00;16.10;99.90
21255;DHT22;10785;50.674;17.954;2023-04-29T08:39:29;16.10;99.90
21255;DHT22;10785;50.674;17.954;2023-04-29T08:41:58;16.10;99.90
21255;DHT22;10785;50.674;17.954;2023-04-29T08:44:26;16.20;99.90
21255;DHT22;10785;50.674;17.954;2023-04-29T08:46:56;16.00;99.90
21255;DHT22;10785;50.674;17.954;2023-04-29T08:49:28;16.00;99.90
21255;DHT22;10785;50.674;17.954;2023-04-29T08:51:59;15.90;99.90
21255;DHT22;10785;50.674;17.954;2023-04-29T08:54:30;16.00;99.90
21255;DHT22;10785;50.674;17.954;2023-04-29T08:56:59;15.90;99.90
21255;DHT22;10785;50.674;17.954;2023-04-29T08:59:29;15.80;99.90
21255;DHT22;10785;50.674;17.954;2023-04-29T09:01:59;15.50;99.90
21255;DHT22;10785;50.674;17.954;2023-04-29T09:04:36;15.40;99.90
21255;DHT22;10785;50.674;17.954;2023-04-29T09:07:06;15.10;99.90
21255;DHT22;10785;50.674;17.954;2023-04-29T09:09:36;15.00;99.90
21255;DHT22;10785;50.674;17.954;2023-04-29T09:12:05;14.80;99.90
21255;DHT22;10785;50.674;17.954;2023-04-29T09:14:34;14.80;99.90
21255;DHT22;10785;50.674;17.954;2023-04-29T09:17:03;14.50;99.90
21255;DHT22;10785;50.674;17.954;2023-04-29T09:19:35;14.30;99.90
21255;DHT22;10785;50.674;17.954;2023-04-29T09:22:04;14.30;99.90
21255;DHT22;10785;50.674;17.954;2023-04-29T09:24:34;14.20;99.90
21255;DHT22;10785;50.674;17.954;2023-04-29T09:27:04;14.00;99.90
21255;DHT22;10785;50.674;17.954;2023-04-29T09:29:36;13.90;99.90
21255;DHT22;10785;50.674;17.954;2023-04-29T09:32:18;13.80;99.90
21255;DHT22;10785;50.674;17.954;2023-04-29T09:34:49;13.70;1.00
21255;DHT22;10785;50.674;17.954;2023-04-29T09:37:23;13.70;1.00
21255;DHT22;10785;50.674;17.954;2023-04-29T09:39:53;13.80;1.00
21255;DHT22;10785;50.674;17.954;2023-04-29T09:42:22;13.80;1.00
21255;DHT22;10785;50.674;17.954;2023-04-29T09:44:50;13.80;1.00
21255;DHT22;10785;50.674;17.954;2023-04-29T09:47:29;13.80;1.00
21255;DHT22;10785;50.674;17.954;2023-04-29T09:50:11;13.80;1.00
21255;DHT22;10785;50.674;17.954;2023-04-29T09:52:42;13.90;1.00
21255;DHT22;10785;50.674;17.954;2023-04-29T09:55:11;14.00;1.00
21255;DHT22;10785;50.674;17.954;2023-04-29T09:57:45;14.10;1.00
21255;DHT22;10785;50.674;17.954;2023-04-29T10:00:14;14.20;1.00
21255;DHT22;10785;50.674;17.954;2023-04-29T10:02:45;14.30;1.00
21255;DHT22;10785;50.674;17.954;2023-04-29T10:05:19;14.40;1.00
21255;DHT22;10785;50.674;17.954;2023-04-29T10:07:50;14.50;1.00
21255;DHT22;10785;50.674;17.954;2023-04-29T10:10:20;14.60;1.00
21255;DHT22;10785;50.674;17.954;2023-04-29T10:12:52;14.70;1.00
21255;DHT22;10785;50.674;17.954;2023-04-29T10:15:27;14.80;1.00
21255;DHT22;10785;50.674;17.954;2023-04-29T10:18:02;14.90;1.00
21255;DHT22;10785;50.674;17.954;2023-04-29T10:20:34;14.90;1.00
21255;DHT22;10785;50.674;17.954;2023-04-29T10:23:06;14.90;1.00
21255;DHT22;10785;50.674;17.954;2023-04-29T10:25:36;14.90;99.90
21255;DHT22;10785;50.674;17.954;2023-04-29T10:28:08;14.90;99.90
21255;DHT22;10785;50.674;17.954;2023-04-29T10:30:41;14.80;99.90
21255;DHT22;10785;50.674;17.954;2023-04-29T10:33:11;14.70;99.90
21255;DHT22;10785;50.674;17.954;2023-04-29T10:35:45;14.50;1.00
21255;DHT22;10785;50.674;17.954;2023-04-29T10:38:23;14.50;1.00
21255;DHT22;10785;50.674;17.954;2023-04-29T10:40:55;14.50;1.00
21255;DHT22;10785;50.674;17.954;2023-04-29T10:43:24;14.50;1.00
21255;DHT22;10785;50.674;17.954;2023-04-29T10:46:18;14.50;1.00
21255;DHT22;10785;50.674;17.954;2023-04-29T10:48:47;14.60;1.00
21255;DHT22;10785;50.674;17.954;2023-04-29T10:51:34;14.60;1.00
21255;DHT22;10785;50.674;17.954;2023-04-29T10:54:08;14.50;1.00
21255;DHT22;10785;50.674;17.954;2023-04-29T10:56:39;14.40;1.00
21255;DHT22;10785;50.674;17.954;2023-04-29T10:59:13;14.40;1.00
21255;DHT22;10785;50.674;17.954;2023-04-29T11:01:44;14.60;1.00
21255;DHT22;10785;50.674;17.954;2023-04-29T11:04:14;14.60;1.00
21255;DHT22;10785;50.674;17.954;2023-04-29T11:06:51;14.50;1.00
21255;DHT22;10785;50.674;17.954;2023-04-29T11:09:23;14.50;1.00
21255;DHT22;10785;50.674;17.954;2023-04-29T11:11:59;14.50;1.00
21255;DHT22;10785;50.674;17.954;2023-04-29T11:14:31;14.50;1.00
21255;DHT22;10785;50.674;17.954;2023-04-29T11:17:02;14.50;1.00
21255;DHT22;10785;50.674;17.954;2023-04-29T11:19:33;14.50;1.00
21255;DHT22;10785;50.674;17.954;2023-04-29T11:22:12;14.50;1.00
21255;DHT22;10785;50.674;17.954;2023-04-29T11:24:51;14.70;1.00
21255;DHT22;10785;50.674;17.954;2023-04-29T11:27:22;14.80;1.00
21255;DHT22;10785;50.674;17.954;2023-04-29T11:29:54;14.80;1.00
21255;DHT22;10785;50.674;17.954;2023-04-29T11:32:26;14.80;1.00
21255;DHT22;10785;50.674;17.954;2023-04-29T11:35:06;14.80;1.00
21255;DHT22;10785;50.674;17.954;2023-04-29T11:37:37;14.70;1.00
21255;DHT22;10785;50.674;17.954;2023-04-29T11:40:08;14.70;1.00
21255;DHT22;10785;50.674;17.954;2023-04-29T11:42:40;15.00;1.00
21255;DHT22;10785;50.674;17.954;2023-04-29T11:45:10;15.10;1.00
21255;DHT22;10785;50.674;17.954;2023-04-29T11:47:42;15.40;1.00
21255;DHT22;10785;50.674;17.954;2023-04-29T11:50:12;15.40;1.00
21255;DHT22;10785;50.674;17.954;2023-04-29T11:52:46;15.40;1.00
21255;DHT22;10785;50.674;17.954;2023-04-29T11:55:15;15.40;1.00
21255;DHT22;10785;50.674;17.954;2023-04-29T11:57:48;15.70;1.00
21255;DHT22;10785;50.674;17.954;2023-04-29T12:00:16;15.90;99.90
21255;DHT22;10785;50.674;17.954;2023-04-29T12:02:45;15.80;99.90
21255;DHT22;10785;50.674;17.954;2023-04-29T12:05:15;15.80;99.90
21255;DHT22;10785;50.674;17.954;2023-04-29T12:07:48;16.00;99.90
21255;DHT22;10785;50.674;17.954;2023-04-29T12:10:17;16.10;99.90
21255;DHT22;10785;50.674;17.954;2023-04-29T12:12:47;16.30;99.90
21255;DHT22;10785;50.674;17.954;2023-04-29T12:15:16;16.50;99.90
21255;DHT22;10785;50.674;17.954;2023-04-29T12:17:45;16.60;99.90
21255;DHT22;10785;50.674;17.954;2023-04-29T12:20:14;16.60;99.90
21255;DHT22;10785;50.674;17.954;2023-04-29T12:22:42;16.70;99.90
21255;DHT22;10785;50.674;17.954;2023-04-29T12:25:13;16.80;99.90
21255;DHT22;10785;50.674;17.954;2023-04-29T12:27:42;17.00;99.90
21255;DHT22;10785;50.674;17.954;2023-04-29T12:30:11;17.00;99.90
21255;DHT22;10785;50.674;17.954;2023-04-29T12:32:40;17.20;99.90
21255;DHT22;10785;50.674;17.954;2023-04-29T12:35:18;17.20;99.90
21255;DHT22;10785;50.674;17.954;2023-04-29T12:37:49;17.10;99.90
21255;DHT22;10785;50.674;17.954;2023-04-29T12:40:19;17.00;99.90
21255;DHT22;10785;50.674;17.954;2023-04-29T12:42:49;16.90;99.90
21255;DHT22;10785;50.674;17.954;2023-04-29T12:54:56;17.60;99.90
21255;DHT22;10785;50.674;17.954;2023-04-29T12:57:28;17.90;99.90
21255;DHT22;10785;50.674;17.954;2023-04-29T12:59:57;18.00;99.90
21255;DHT22;10785;50.674;17.954;2023-04-29T13:02:25;18.10;99.90
21255;DHT22;10785;50.674;17.954;2023-04-29T13:04:54;18.30;99.90
21255;DHT22;10785;50.674;17.954;2023-04-29T13:07:24;18.20;99.90
21255;DHT22;10785;50.674;17.954;2023-04-29T13:09:52;18.00;99.90
21255;DHT22;10785;50.674;17.954;2023-04-29T13:12:21;17.80;99.90
21255;DHT22;10785;50.674;17.954;2023-04-29T13:14:51;17.60;99.90
21255;DHT22;10785;50.674;17.954;2023-04-29T13:17:24;17.50;99.90
21255;DHT22;10785;50.674;17.954;2023-04-29T13:19:52;17.50;99.90
21255;DHT22;10785;50.674;17.954;2023-04-29T13:22:21;17.20;99.90
21255;DHT22;10785;50.674;17.954;2023-04-29T13:24:49;17.30;99.90
21255;DHT22;10785;50.674;17.954;2023-04-29T13:27:18;17.30;99.90
21255;DHT22;10785;50.674;17.954;2023-04-29T13:29:47;17.40;99.90
21255;DHT22;10785;50.674;17.954;2023-04-29T13:32:17;17.30;99.90
21255;DHT22;10785;50.674;17.954;2023-04-29T13:34:48;17.30;99.90
21255;DHT22;10785;50.674;17.954;2023-04-29T13:37:16;17.40;99.90
21255;DHT22;10785;50.674;17.954;2023-04-29T13:39:45;17.40;99.90
21255;DHT22;10785;50.674;17.954;2023-04-29T13:42:14;17.30;99.90
21255;DHT22;10785;50.674;17.954;2023-04-29T13:44:42;17.30;99.90
21255;DHT22;10785;50.674;17.954;2023-04-29T13:47:26;17.20;99.90
21255;DHT22;10785;50.674;17.954;2023-04-29T13:49:57;17.20;99.90
21255;DHT22;10785;50.674;17.954;2023-04-29T13:52:46;17.10;99.90
21255;DHT22;10785;50.674;17.954;2023-04-29T13:55:18;17.10;99.90
21255;DHT22;10785;50.674;17.954;2023-04-29T13:57:50;17.00;99.90
21255;DHT22;10785;50.674;17.954;2023-04-29T14:00:22;17.00;99.90
21255;DHT22;10785;50.674;17.954;2023-04-29T14:03:12;17.00;99.90
21255;DHT22;10785;50.674;17.954;2023-04-29T14:05:41;17.00;99.90
21255;DHT22;10785;50.674;17.954;2023-04-29T14:08:10;17.00;99.90
21255;DHT22;10785;50.674;17.954;2023-04-29T14:10:40;17.00;99.90
21255;DHT22;10785;50.674;17.954;2023-04-29T14:13:08;17.10;99.90
21255;DHT22;10785;50.674;17.954;2023-04-29T14:15:37;17.20;99.90
21255;DHT22;10785;50.674;17.954;2023-04-29T14:18:06;17.40;99.90
21255;DHT22;10785;50.674;17.954;2023-04-29T14:20:38;17.40;99.90
21255;DHT22;10785;50.674;17.954;2023-04-29T14:23:07;17.20;99.90
21255;DHT22;10785;50.674;17.954;2023-04-29T14:25:35;17.30;99.90
21255;DHT22;10785;50.674;17.954;2023-04-29T14:28:04;17.30;99.90
21255;DHT22;10785;50.674;17.954;2023-04-29T14:30:33;17.60;99.90
21255;DHT22;10785;50.674;17.954;2023-04-29T14:33:01;17.80;99.90
21255;DHT22;10785;50.674;17.954;2023-04-29T14:35:30;17.70;99.90
21255;DHT22;10785;50.674;17.954;2023-04-29T14:38:01;17.70;99.90
21255;DHT22;10785;50.674;17.954;2023-04-29T14:40:29;17.60;99.90
21255;DHT22;10785;50.674;17.954;2023-04-29T14:42:58;17.50;99.90
21255;DHT22;10785;50.674;17.954;2023-04-29T14:45:28;17.40;99.90
21255;DHT22;10785;50.674;17.954;2023-04-29T14:47:56;17.20;99.90
21255;DHT22;10785;50.674;17.954;2023-04-29T14:50:25;17.20;99.90
21255;DHT22;10785;50.674;17.954;2023-04-29T14:52:54;17.10;99.90
21255;DHT22;10785;50.674;17.954;2023-04-29T14:55:25;17.00;99.90
21255;DHT22;10785;50.674;17.954;2023-04-29T14:57:59;17.00;99.90
21255;DHT22;10785;50.674;17.954;2023-04-29T15:00:31;16.90;99.90
21255;DHT22;10785;50.674;17.954;2023-04-29T15:02:59;16.90;99.90
21255;DHT22;10785;50.674;17.954;2023-04-29T15:05:30;16.90;99.90
21255;DHT22;10785;50.674;17.954;2023-04-29T15:07:58;16.90;99.90
21255;DHT22;10785;50.674;17.954;2023-04-29T15:10:29;17.10;99.90
21255;DHT22;10785;50.674;17.954;2023-04-29T15:12:58;17.20;99.90
21255;DHT22;10785;50.674;17.954;2023-04-29T15:15:27;17.40;99.90
21255;DHT22;10785;50.674;17.954;2023-04-29T15:17:56;17.60;99.90
21255;DHT22;10785;50.674;17.954;2023-04-29T15:20:25;17.80;99.90
21255;DHT22;10785;50.674;17.954;2023-04-29T15:22:53;17.60;99.90
21255;DHT22;10785;50.674;17.954;2023-04-29T15:25:22;17.70;99.90
21255;DHT22;10785;50.674;17.954;2023-04-29T15:27:55;17.60;99.90
21255;DHT22;10785;50.674;17.954;2023-04-29T15:30:25;17.50;99.90
21255;DHT22;10785;50.674;17.954;2023-04-29T15:32:54;17.50;99.90
21255;DHT22;10785;50.674;17.954;2023-04-29T15:35:22;17.50;99.90
21255;DHT22;10785;50.674;17.954;2023-04-29T15:37:51;17.40;99.90
21255;DHT22;10785;50.674;17.954;2023-04-29T15:40:20;17.40;99.90
21255;DHT22;10785;50.674;17.954;2023-04-29T15:42:48;17.40;99.90
21255;DHT22;10785;50.674;17.954;2023-04-29T15:45:19;17.30;99.90
21255;DHT22;10785;50.674;17.954;2023-04-29T15:47:47;17.30;99.90
21255;DHT22;10785;50.674;17.954;2023-04-29T15:50:16;17.00;99.90
21255;DHT22;10785;50.674;17.954;2023-04-29T15:52:45;16.80;99.90
21255;DHT22;10785;50.674;17.954;2023-04-29T15:55:13;16.80;99.90
21255;DHT22;10785;50.674;17.954;2023-04-29T15:57:44;16.70;99.90
21255;DHT22;10785;50.674;17.954;2023-04-29T16:00:12;16.60;99.90
21255;DHT22;10785;50.674;17.954;2023-04-29T16:02:44;16.50;99.90
21255;DHT22;10785;50.674;17.954;2023-04-29T16:05:12;16.50;99.90
21255;DHT22;10785;50.674;17.954;2023-04-29T16:07:41;16.40;99.90
21255;DHT22;10785;50.674;17.954;2023-04-29T16:10:09;16.40;99.90
21255;DHT22;10785;50.674;17.954;2023-04-29T16:12:38;16.50;99.90
21255;DHT22;10785;50.674;17.954;2023-04-29T16:15:08;16.40;99.90
21255;DHT22;10785;50.674;17.954;2023-04-29T16:17:36;16.50;99.90
21255;DHT22;10785;50.674;17.954;2023-04-29T16:20:08;16.40;99.90
21255;DHT22;10785;50.674;17.954;2023-04-29T16:22:36;16.50;99.90
21255;DHT22;10785;50.674;17.954;2023-04-29T16:25:06;16.40;99.90
21255;DHT22;10785;50.674;17.954;2023-04-29T16:27:34;16.30;99.90
21255;DHT22;10785;50.674;17.954;2023-04-29T16:30:03;16.30;99.90
21255;DHT22;10785;50.674;17.954;2023-04-29T16:32:32;16.20;99.90
21255;DHT22;10785;50.674;17.954;2023-04-29T16:35:01;16.10;99.90
21255;DHT22;10785;50.674;17.954;2023-04-29T16:37:32;16.00;99.90
21255;DHT22;10785;50.674;17.954;2023-04-29T16:40:00;15.80;99.90
21255;DHT22;10785;50.674;17.954;2023-04-29T16:42:31;15.70;99.90
21255;DHT22;10785;50.674;17.954;2023-04-29T16:44:59;15.60;99.90
21255;DHT22;10785;50.674;17.954;2023-04-29T16:47:31;15.60;99.90
21255;DHT22;10785;50.674;17.954;2023-04-29T16:50:01;15.50;99.90
21255;DHT22;10785;50.674;17.954;2023-04-29T16:52:31;15.40;99.90
21255;DHT22;10785;50.674;17.954;2023-04-29T16:55:00;15.40;99.90
21255;DHT22;10785;50.674;17.954;2023-04-29T16:57:30;15.30;1.00